Time;durP1;ratioP1;P1;durP2;ratioP2;P2;SDS_P1;SDS_P2;PMS_P1;PMS_P2;Temp;Humidity;BMP_temperature;BMP_pressure;BME280_temperature;BME280_humidity;BME280_pressure;Samples;Min_cycle;Max_cycle;Signal;HPM_P1;HPM_P2
2021/10/18 00:00:25;;;;;;;8.07;4.35;;;;;;;;;;5093097;28;20071;-75
2021/10/18 00:02:50;;;;;;;13.63;4.78;;;;;;;;;;5093281;28;20035;-75
2021/10/18 00:05:16;;;;;;;26.80;6.72;;;;;;;;;;5093194;28;20085;-75
2021/10/18 00:07:41;;;;;;;21.58;5.93;;;;;;;;;;5093422;28;20114;-75
2021/10/18 00:10:11;;;;;;;11.85;5.32;;;;;;;;;;5093342;28;20110;-75
2021/10/18 00:12:37;;;;;;;10.55;4.47;;;;;;;;;;5092217;28;20036;-75
2021/10/18 00:15:05;;;;;;;11.40;4.43;;;;;;;;;;5093081;28;20375;-75
2021/10/18 00:17:31;;;;;;;12.23;4.32;;;;;;;;;;5092727;28;20032;-75
2021/10/18 00:19:56;;;;;;;11.80;4.90;;;;;;;;;;5092024;28;20473;-75
2021/10/18 00:22:22;;;;;;;12.15;4.32;;;;;;;;;;5092112;28;20039;-75
2021/10/18 00:24:48;;;;;;;10.65;4.65;;;;;;;;;;5094239;28;20081;-75
2021/10/18 00:27:13;;;;;;;17.63;5.88;;;;;;;;;;5097309;28;20048;-75
2021/10/18 00:29:38;;;;;;;41.40;4.68;;;;;;;;;;5095940;28;20085;-75
2021/10/18 00:32:04;;;;;;;19.05;4.25;;;;;;;;;;5097128;28;20076;-75
2021/10/18 00:34:29;;;;;;;13.90;4.57;;;;;;;;;;5097372;28;20161;-75
2021/10/18 00:36:55;;;;;;;9.10;4.53;;;;;;;;;;5097266;28;20374;-75
2021/10/18 00:39:21;;;;;;;6.95;3.83;;;;;;;;;;5095563;28;20047;-75
2021/10/18 00:41:46;;;;;;;8.00;4.20;;;;;;;;;;5097278;28;20043;-75
2021/10/18 00:44:12;;;;;;;11.85;5.10;;;;;;;;;;5096811;28;20036;-75
2021/10/18 00:46:37;;;;;;;15.98;5.93;;;;;;;;;;5096009;28;20480;-75
2021/10/18 00:49:03;;;;;;;18.27;6.45;;;;;;;;;;5095967;28;20043;-75
2021/10/18 00:51:28;;;;;;;20.27;6.78;;;;;;;;;;5094666;28;20036;-75
2021/10/18 00:53:56;;;;;;;28.30;7.03;;;;;;;;;;5096793;28;20047;-75
2021/10/18 00:56:23;;;;;;;27.20;7.50;;;;;;;;;;5096936;28;20382;-75
2021/10/18 00:58:50;;;;;;;19.05;7.47;;;;;;;;;;5095987;28;20040;-75
2021/10/18 01:01:16;;;;;;;16.80;7.07;;;;;;;;;;5096553;28;20036;-75
2021/10/18 01:03:42;;;;;;;19.15;6.93;;;;;;;;;;5095436;28;20085;-75
2021/10/18 01:06:08;;;;;;;22.13;8.30;;;;;;;;;;5096016;28;20028;-75
2021/10/18 01:08:34;;;;;;;25.80;7.80;;;;;;;;;;5096486;28;20362;-75
2021/10/18 01:10:59;;;;;;;19.63;7.90;;;;;;;;;;5096644;28;20475;-75
2021/10/18 01:13:25;;;;;;;18.58;7.93;;;;;;;;;;5096412;28;20378;-75
2021/10/18 01:15:50;;;;;;;15.13;6.75;;;;;;;;;;5095957;28;20028;-75
2021/10/18 01:18:16;;;;;;;20.88;7.18;;;;;;;;;;5096574;28;20465;-75
2021/10/18 01:20:41;;;;;;;19.60;6.93;;;;;;;;;;5094552;28;20055;-75
2021/10/18 01:23:09;;;;;;;15.57;7.15;;;;;;;;;;5096556;28;20446;-75
2021/10/18 01:25:39;;;;;;;25.90;7.43;;;;;;;;;;5095072;28;20477;-75
2021/10/18 01:28:05;;;;;;;12.65;6.82;;;;;;;;;;5096249;28;20043;-75
2021/10/18 01:30:30;;;;;;;14.82;7.55;;;;;;;;;;5095233;28;20040;-75
2021/10/18 01:32:56;;;;;;;21.00;7.32;;;;;;;;;;5096422;28;20399;-75
2021/10/18 01:35:22;;;;;;;42.22;8.65;;;;;;;;;;5094797;28;20040;-75
2021/10/18 01:37:51;;;;;;;20.15;7.63;;;;;;;;;;5095906;28;20059;-75
2021/10/18 01:40:20;;;;;;;17.23;6.63;;;;;;;;;;5095941;28;20135;-76
2021/10/18 01:42:46;;;;;;;18.48;5.47;;;;;;;;;;5096165;28;20032;-75
2021/10/18 01:45:15;;;;;;;24.73;6.35;;;;;;;;;;5094751;28;20052;-75
2021/10/18 01:47:41;;;;;;;16.70;6.40;;;;;;;;;;5095799;28;20043;-75
2021/10/18 01:50:08;;;;;;;17.73;6.40;;;;;;;;;;5094711;28;20135;-75
2021/10/18 01:52:34;;;;;;;16.02;6.07;;;;;;;;;;5095918;28;20438;-76
2021/10/18 01:54:59;;;;;;;28.50;6.75;;;;;;;;;;5095056;28;20063;-75
2021/10/18 01:57:24;;;;;;;18.27;6.55;;;;;;;;;;5095906;28;20066;-76
2021/10/18 01:59:50;;;;;;;17.48;5.75;;;;;;;;;;5094589;28;20131;-76
2021/10/18 02:02:18;;;;;;;9.98;6.78;;;;;;;;;;5094540;28;20039;-75
2021/10/18 02:04:44;;;;;;;18.40;6.85;;;;;;;;;;5095340;28;20036;-75
2021/10/18 02:07:09;;;;;;;10.70;7.10;;;;;;;;;;5095624;28;20042;-76
2021/10/18 02:09:35;;;;;;;14.80;6.70;;;;;;;;;;5093248;28;20456;-76
2021/10/18 02:12:00;;;;;;;14.13;7.25;;;;;;;;;;5075449;28;20040;-76
2021/10/18 02:14:25;;;;;;;23.95;6.75;;;;;;;;;;5075110;28;20036;-75
2021/10/18 02:16:51;;;;;;;11.38;6.85;;;;;;;;;;5094129;28;20370;-75
2021/10/18 02:19:16;;;;;;;13.82;7.13;;;;;;;;;;5095063;28;20082;-76
2021/10/18 02:21:41;;;;;;;11.02;6.38;;;;;;;;;;5095142;28;20042;-75
2021/10/18 02:24:07;;;;;;;11.35;7.05;;;;;;;;;;5093954;28;20446;-75
2021/10/18 02:26:32;;;;;;;9.43;7.28;;;;;;;;;;5095030;28;20430;-76
2021/10/18 02:28:58;;;;;;;10.45;7.43;;;;;;;;;;5093744;28;20036;-76
2021/10/18 02:31:23;;;;;;;12.50;7.63;;;;;;;;;;5094497;28;20122;-75
2021/10/18 02:33:48;;;;;;;18.98;6.80;;;;;;;;;;5095010;28;20094;-75
2021/10/18 02:36:14;;;;;;;36.67;7.00;;;;;;;;;;5095194;28;20081;-76
2021/10/18 02:38:40;;;;;;;43.70;8.18;;;;;;;;;;5093567;28;20067;-76
2021/10/18 02:41:07;;;;;;;14.13;7.18;;;;;;;;;;5094624;28;20052;-76
2021/10/18 02:43:32;;;;;;;15.25;7.50;;;;;;;;;;5093571;28;20072;-76
2021/10/18 02:45:58;;;;;;;9.63;7.13;;;;;;;;;;5094319;28;20036;-75
2021/10/18 02:48:23;;;;;;;9.63;6.57;;;;;;;;;;5094213;28;20032;-76
2021/10/18 02:50:48;;;;;;;33.63;6.80;;;;;;;;;;5093566;28;20032;-74
2021/10/18 02:53:14;;;;;;;47.17;9.43;;;;;;;;;;5095162;28;20031;-76
2021/10/18 02:55:39;;;;;;;28.35;7.95;;;;;;;;;;5094514;28;20070;-76
2021/10/18 02:58:05;;;;;;;73.57;7.38;;;;;;;;;;5094150;28;20043;-75
2021/10/18 03:00:30;;;;;;;20.98;6.90;;;;;;;;;;5093442;28;20390;-75
2021/10/18 03:02:56;;;;;;;70.50;8.50;;;;;;;;;;5094361;28;20186;-75
2021/10/18 03:05:22;;;;;;;11.45;7.13;;;;;;;;;;5093318;28;20052;-75
2021/10/18 03:07:51;;;;;;;20.95;7.88;;;;;;;;;;5091529;28;20028;-75
2021/10/18 03:10:17;;;;;;;9.45;6.72;;;;;;;;;;5091097;28;20046;-75
2021/10/18 03:12:43;;;;;;;13.55;6.90;;;;;;;;;;5091942;28;20032;-75
2021/10/18 03:15:08;;;;;;;31.35;7.53;;;;;;;;;;5091747;28;20145;-74
2021/10/18 03:17:34;;;;;;;12.68;7.20;;;;;;;;;;5092159;28;20039;-74
2021/10/18 03:19:59;;;;;;;9.20;6.35;;;;;;;;;;5092343;28;20032;-74
2021/10/18 03:22:25;;;;;;;29.58;7.20;;;;;;;;;;5093507;28;20530;-74
2021/10/18 03:24:50;;;;;;;27.20;6.53;;;;;;;;;;5094085;28;20038;-75
2021/10/18 03:27:16;;;;;;;19.30;6.50;;;;;;;;;;5094038;28;20390;-74
2021/10/18 03:29:41;;;;;;;23.70;6.68;;;;;;;;;;5092820;28;20032;-75
2021/10/18 03:32:06;;;;;;;84.30;7.72;;;;;;;;;;5093679;28;20024;-75
2021/10/18 03:34:32;;;;;;;25.83;6.38;;;;;;;;;;5093743;28;20036;-75
2021/10/18 03:36:57;;;;;;;12.75;6.78;;;;;;;;;;5093981;28;20071;-75
2021/10/18 03:39:22;;;;;;;8.98;6.28;;;;;;;;;;5092991;28;20063;-75
2021/10/18 03:41:48;;;;;;;14.73;7.22;;;;;;;;;;5093729;28;20031;-74
2021/10/18 03:44:13;;;;;;;17.98;7.20;;;;;;;;;;5093957;28;20047;-75
2021/10/18 03:46:39;;;;;;;29.10;6.88;;;;;;;;;;5093814;28;20036;-75
2021/10/18 03:49:06;;;;;;;20.30;7.30;;;;;;;;;;5093718;28;20028;-75
2021/10/18 03:51:32;;;;;;;17.63;7.43;;;;;;;;;;5093604;28;20039;-75
2021/10/18 03:53:57;;;;;;;52.72;7.72;;;;;;;;;;5093435;28;20035;-74
2021/10/18 03:56:23;;;;;;;66.82;7.28;;;;;;;;;;5093177;28;20044;-75
2021/10/18 03:58:48;;;;;;;75.93;7.78;;;;;;;;;;5091498;28;20063;-75
2021/10/18 04:01:13;;;;;;;23.35;6.45;;;;;;;;;;5092701;28;20355;-75
2021/10/18 04:03:39;;;;;;;47.85;7.13;;;;;;;;;;5093233;28;20123;-75
2021/10/18 04:06:04;;;;;;;135.25;8.88;;;;;;;;;;5092317;28;20122;-75
2021/10/18 04:08:33;;;;;;;208.95;10.00;;;;;;;;;;5092075;28;20039;-74
2021/10/18 04:11:00;;;;;;;22.83;7.85;;;;;;;;;;5093331;28;20051;-75
2021/10/18 04:13:26;;;;;;;18.08;7.20;;;;;;;;;;5093560;28;20351;-75
2021/10/18 04:15:51;;;;;;;11.45;6.93;;;;;;;;;;5091619;28;20050;-75
2021/10/18 04:18:18;;;;;;;12.50;7.13;;;;;;;;;;5092642;28;20039;-75
2021/10/18 04:20:44;;;;;;;16.85;7.93;;;;;;;;;;5092828;28;20478;-74
2021/10/18 04:23:11;;;;;;;17.92;7.53;;;;;;;;;;5093530;28;20107;-74
2021/10/18 04:25:36;;;;;;;11.35;7.00;;;;;;;;;;5092926;28;20508;-74
2021/10/18 04:28:02;;;;;;;27.10;6.93;;;;;;;;;;5093445;28;20024;-75
2021/10/18 04:30:27;;;;;;;8.27;6.90;;;;;;;;;;5091858;28;20373;-75
2021/10/18 04:32:54;;;;;;;21.05;7.50;;;;;;;;;;5093243;28;20080;-74
2021/10/18 04:35:19;;;;;;;12.95;7.78;;;;;;;;;;5092854;28;20464;-74
2021/10/18 04:37:45;;;;;;;8.27;6.80;;;;;;;;;;5093146;28;20501;-75
2021/10/18 04:40:11;;;;;;;15.00;7.20;;;;;;;;;;5093053;28;20083;-75
2021/10/18 04:42:36;;;;;;;15.52;7.78;;;;;;;;;;5093221;28;20047;-75
2021/10/18 04:45:02;;;;;;;54.10;7.20;;;;;;;;;;5093157;28;20028;-75
2021/10/18 04:47:28;;;;;;;72.97;8.15;;;;;;;;;;5093055;28;20537;-75
2021/10/18 04:49:53;;;;;;;51.72;7.88;;;;;;;;;;5092498;28;20032;-75
2021/10/18 04:52:18;;;;;;;42.20;8.80;;;;;;;;;;5092060;28;20162;-75
2021/10/18 04:54:44;;;;;;;21.52;7.72;;;;;;;;;;5092953;28;20036;-75
2021/10/18 04:57:09;;;;;;;19.75;7.55;;;;;;;;;;5092469;28;20036;-75
2021/10/18 04:59:34;;;;;;;84.40;8.75;;;;;;;;;;5092963;28;20115;-75
2021/10/18 05:02:00;;;;;;;24.42;7.68;;;;;;;;;;5092916;28;20071;-75
2021/10/18 05:04:25;;;;;;;8.43;6.97;;;;;;;;;;5092889;28;20389;-75
2021/10/18 05:06:50;;;;;;;49.25;8.45;;;;;;;;;;5089865;28;20036;-75
2021/10/18 05:09:16;;;;;;;10.50;7.68;;;;;;;;;;5074689;28;20047;-75
2021/10/18 05:11:41;;;;;;;9.20;6.95;;;;;;;;;;5095115;28;20078;-75
2021/10/18 05:14:07;;;;;;;11.60;7.22;;;;;;;;;;5096561;28;20047;-75
2021/10/18 05:16:34;;;;;;;14.32;6.95;;;;;;;;;;5096797;28;20040;-75
2021/10/18 05:18:59;;;;;;;29.83;6.13;;;;;;;;;;5096576;28;20032;-75
2021/10/18 05:21:25;;;;;;;12.60;6.38;;;;;;;;;;5095383;28;20024;-75
2021/10/18 05:23:50;;;;;;;10.30;6.90;;;;;;;;;;5096203;28;20107;-75
2021/10/18 05:26:15;;;;;;;14.63;6.25;;;;;;;;;;5095450;28;20485;-75
2021/10/18 05:28:41;;;;;;;15.20;7.10;;;;;;;;;;5096537;28;20045;-75
2021/10/18 05:31:07;;;;;;;14.00;6.20;;;;;;;;;;5095041;28;20035;-74
2021/10/18 05:33:32;;;;;;;12.77;6.55;;;;;;;;;;5096163;28;20028;-75
2021/10/18 05:35:58;;;;;;;13.65;5.90;;;;;;;;;;5095521;28;20359;-75
2021/10/18 05:38:23;;;;;;;21.65;6.20;;;;;;;;;;5094975;28;20062;-75
2021/10/18 05:40:51;;;;;;;8.60;6.47;;;;;;;;;;5094740;28;20482;-75
2021/10/18 05:43:16;;;;;;;35.47;6.65;;;;;;;;;;5094826;28;20036;-75
2021/10/18 05:45:42;;;;;;;19.63;6.18;;;;;;;;;;5094857;28;20040;-76
2021/10/18 05:48:08;;;;;;;17.00;6.72;;;;;;;;;;5094027;28;20047;-75
2021/10/18 05:50:36;;;;;;;39.53;7.32;;;;;;;;;;5094603;28;20041;-75
2021/10/18 05:53:02;;;;;;;26.42;7.10;;;;;;;;;;5095594;28;20028;-75
2021/10/18 05:55:28;;;;;;;119.28;7.80;;;;;;;;;;5095647;28;20040;-75
2021/10/18 05:57:59;;;;;;;103.18;8.40;;;;;;;;;;5095157;28;20042;-75
2021/10/18 06:00:26;;;;;;;23.30;6.43;;;;;;;;;;5095405;28;20044;-75
2021/10/18 06:02:52;;;;;;;10.10;7.40;;;;;;;;;;5095864;28;20040;-75
2021/10/18 06:05:18;;;;;;;9.05;7.18;;;;;;;;;;5095864;28;20044;-75
2021/10/18 06:07:44;;;;;;;11.10;7.65;;;;;;;;;;5095656;28;20497;-76
2021/10/18 06:10:11;;;;;;;11.45;8.00;;;;;;;;;;5095532;28;20103;-75
2021/10/18 06:12:37;;;;;;;10.60;6.97;;;;;;;;;;5095485;28;20064;-75
2021/10/18 06:15:03;;;;;;;9.18;6.90;;;;;;;;;;5095129;28;20032;-75
2021/10/18 06:17:29;;;;;;;9.98;7.18;;;;;;;;;;5095371;28;20492;-75
2021/10/18 06:19:54;;;;;;;31.15;6.40;;;;;;;;;;5095268;28;20378;-75
2021/10/18 06:22:19;;;;;;;8.48;6.63;;;;;;;;;;5094363;28;20024;-75
2021/10/18 06:24:45;;;;;;;29.23;6.90;;;;;;;;;;5094305;28;20085;-74
2021/10/18 06:27:10;;;;;;;12.07;6.53;;;;;;;;;;5095399;28;20038;-74
2021/10/18 06:29:36;;;;;;;30.70;7.60;;;;;;;;;;5095240;28;20036;-74
2021/10/18 06:32:06;;;;;;;95.18;7.13;;;;;;;;;;5095145;28;20114;-76
2021/10/18 06:34:31;;;;;;;18.80;6.65;;;;;;;;;;5095585;28;20122;-78
2021/10/18 06:36:57;;;;;;;25.13;6.70;;;;;;;;;;5095014;28;20094;-76
2021/10/18 06:39:22;;;;;;;10.68;6.97;;;;;;;;;;5093725;28;20141;-77
2021/10/18 06:41:48;;;;;;;11.18;7.63;;;;;;;;;;5095247;28;20036;-77
2021/10/18 06:44:13;;;;;;;10.02;7.35;;;;;;;;;;5094854;28;20046;-77
2021/10/18 06:46:38;;;;;;;162.82;11.30;;;;;;;;;;5094980;28;20040;-75
2021/10/18 06:49:04;;;;;;;183.95;9.35;;;;;;;;;;5094998;28;20070;-78
2021/10/18 06:51:35;;;;;;;192.43;10.32;;;;;;;;;;5095880;28;20043;-77
2021/10/18 06:54:01;;;;;;;34.75;9.95;;;;;;;;;;5093414;28;20040;-77
2021/10/18 06:56:27;;;;;;;43.67;8.20;;;;;;;;;;5093532;28;20118;-77
2021/10/18 06:58:52;;;;;;;12.23;8.15;;;;;;;;;;5094637;28;20067;-76
2021/10/18 07:01:17;;;;;;;26.73;11.13;;;;;;;;;;5094364;28;20036;-75
2021/10/18 07:03:43;;;;;;;11.27;8.23;;;;;;;;;;5094437;28;20090;-76
2021/10/18 07:06:08;;;;;;;32.95;8.15;;;;;;;;;;5092797;28;20039;-75
2021/10/18 07:08:34;;;;;;;16.70;8.25;;;;;;;;;;5098553;28;20062;-79
2021/10/18 07:10:59;;;;;;;16.05;7.65;;;;;;;;;;5119236;28;20031;-75
2021/10/18 07:13:24;;;;;;;13.95;7.90;;;;;;;;;;5116139;28;20061;-80
2021/10/18 07:15:50;;;;;;;48.00;8.38;;;;;;;;;;5118598;28;20039;-83
2021/10/18 07:18:15;;;;;;;21.13;6.95;;;;;;;;;;5122580;28;20068;-82
2021/10/18 07:20:41;;;;;;;26.00;7.40;;;;;;;;;;5119868;28;20496;-81
2021/10/18 07:23:09;;;;;;;71.45;7.68;;;;;;;;;;5119069;28;20058;-80
2021/10/18 07:25:35;;;;;;;9.95;6.60;;;;;;;;;;5115910;28;20095;-78
2021/10/18 07:28:01;;;;;;;9.55;7.60;;;;;;;;;;5096499;28;20115;-78
2021/10/18 07:30:27;;;;;;;10.77;7.38;;;;;;;;;;5099762;28;20097;-77
2021/10/18 07:32:52;;;;;;;8.55;6.68;;;;;;;;;;5095274;28;20032;-76
2021/10/18 07:35:20;;;;;;;21.75;7.70;;;;;;;;;;5102871;28;20044;-82
2021/10/18 07:37:53;;;;;;;48.60;7.00;;;;;;;;;;5105756;28;20063;-82
2021/10/18 07:40:18;;;;;;;11.27;6.93;;;;;;;;;;5098934;28;20056;-81
2021/10/18 07:42:44;;;;;;;22.33;7.03;;;;;;;;;;5097046;28;20032;-81
2021/10/18 07:45:10;;;;;;;17.23;7.32;;;;;;;;;;5105721;28;20032;-83
2021/10/18 07:47:35;;;;;;;13.55;7.03;;;;;;;;;;5091575;28;20043;-77
2021/10/18 07:50:02;;;;;;;8.43;6.78;;;;;;;;;;5073623;28;20044;-77
2021/10/18 07:52:27;;;;;;;53.78;7.28;;;;;;;;;;5082618;28;20032;-76
2021/10/18 07:55:00;;;;;;;9.25;6.70;;;;;;;;;;5093547;28;20047;-77
2021/10/18 07:57:26;;;;;;;25.77;7.55;;;;;;;;;;5093747;28;20054;-76
2021/10/18 07:59:51;;;;;;;9.18;7.00;;;;;;;;;;5093326;28;20036;-77
2021/10/18 08:02:16;;;;;;;14.38;7.15;;;;;;;;;;5082937;28;20024;-76
2021/10/18 08:04:42;;;;;;;9.88;6.72;;;;;;;;;;5093181;28;20032;-77
2021/10/18 08:07:07;;;;;;;34.72;6.18;;;;;;;;;;5093414;28;20062;-77
2021/10/18 08:09:33;;;;;;;14.20;7.35;;;;;;;;;;5091460;28;20058;-77
2021/10/18 08:11:58;;;;;;;21.23;7.47;;;;;;;;;;5092910;28;20512;-77
2021/10/18 08:14:23;;;;;;;14.65;6.80;;;;;;;;;;5092540;28;20028;-76
2021/10/18 08:16:49;;;;;;;18.02;9.40;;;;;;;;;;5090974;28;20067;-76
2021/10/18 08:19:14;;;;;;;12.88;7.97;;;;;;;;;;5093192;28;20408;-77
2021/10/18 08:21:40;;;;;;;24.08;9.38;;;;;;;;;;5093501;28;20032;-76
2021/10/18 08:24:05;;;;;;;39.08;9.57;;;;;;;;;;5093310;28;20032;-77
2021/10/18 08:26:31;;;;;;;12.80;8.63;;;;;;;;;;5082910;28;20119;-78
2021/10/18 08:28:56;;;;;;;18.92;8.55;;;;;;;;;;5076086;28;20401;-78
2021/10/18 08:31:22;;;;;;;22.63;7.95;;;;;;;;;;5077315;28;20036;-78
2021/10/18 08:33:47;;;;;;;14.82;9.93;;;;;;;;;;5094751;28;20032;-79
2021/10/18 08:36:13;;;;;;;25.75;9.43;;;;;;;;;;5096570;28;20035;-79
2021/10/18 08:46:05;;;;;;;20.88;10.00;;;;;;;;;;5117541;28;20460;-76
2021/10/18 08:48:31;;;;;;;17.80;10.30;;;;;;;;;;5118943;28;20063;-77
2021/10/18 08:50:57;;;;;;;9.52;7.43;;;;;;;;;;5120279;28;20050;-78
2021/10/18 08:53:22;;;;;;;12.50;8.20;;;;;;;;;;5120144;28;20035;-77
2021/10/18 08:55:48;;;;;;;9.80;7.47;;;;;;;;;;5118387;28;20036;-78
2021/10/18 08:58:13;;;;;;;9.80;6.72;;;;;;;;;;5120036;28;20076;-76
2021/10/18 09:00:43;;;;;;;13.93;8.93;;;;;;;;;;5117943;28;20035;-77
2021/10/18 09:03:26;;;;;;;8.05;5.97;;;;;;;;;;5119373;27;20085;-78
2021/10/18 09:06:14;;;;;;;6.97;5.38;;;;;;;;;;5119083;28;20481;-76
2021/10/18 09:08:49;;;;;;;8.57;5.90;;;;;;;;;;5116581;28;20032;-77
2021/10/18 09:11:20;;;;;;;7.53;5.50;;;;;;;;;;5098132;28;20207;-78
2021/10/18 09:13:52;;;;;;;8.23;5.88;;;;;;;;;;5098030;28;20086;-78
2021/10/18 09:16:46;;;;;;;6.05;5.18;;;;;;;;;;5097821;28;20036;-78
2021/10/18 09:19:25;;;;;;;7.22;5.63;;;;;;;;;;5096735;28;20130;-74
2021/10/18 09:21:53;;;;;;;6.70;5.50;;;;;;;;;;5075307;28;20493;-77
2021/10/18 09:24:34;;;;;;;11.52;5.45;;;;;;;;;;5076103;28;20504;-77
2021/10/18 09:27:02;;;;;;;6.88;5.10;;;;;;;;;;5080677;28;20086;-77
2021/10/18 09:29:48;;;;;;;7.38;5.65;;;;;;;;;;5077300;28;20389;-77
2021/10/18 09:32:19;;;;;;;7.55;4.63;;;;;;;;;;5076608;28;20037;-77
2021/10/18 09:34:44;;;;;;;6.55;5.32;;;;;;;;;;5076224;28;20489;-77
2021/10/18 09:37:14;;;;;;;7.97;5.55;;;;;;;;;;5075758;28;20170;-76
2021/10/18 09:39:44;;;;;;;12.05;8.00;;;;;;;;;;5075551;28;20494;-76
2021/10/18 09:42:18;;;;;;;10.18;7.18;;;;;;;;;;5075835;28;20386;-76
2021/10/18 10:52:42;;;;;;;5.10;4.05;;;;;;;;;;5095057;28;20063;-77
2021/10/18 10:55:36;;;;;;;6.22;3.92;;;;;;;;;;5074339;28;20047;-75
2021/10/18 10:58:23;;;;;;;6.65;3.80;;;;;;;;;;5073805;28;20135;-76
2021/10/18 11:00:49;;;;;;;4.88;3.95;;;;;;;;;;5090804;28;20067;-76
2021/10/18 11:03:41;;;;;;;6.28;4.15;;;;;;;;;;5094300;28;20063;-76
2021/10/18 11:06:11;;;;;;;5.25;3.35;;;;;;;;;;5072157;28;20474;-75
2021/10/18 11:08:43;;;;;;;7.20;3.20;;;;;;;;;;5089111;28;20119;-76
2021/10/18 11:11:23;;;;;;;7.95;4.85;;;;;;;;;;5094097;28;20036;-76
2021/10/18 11:13:56;;;;;;;6.47;4.30;;;;;;;;;;5096980;28;20066;-84
2021/10/18 11:16:27;;;;;;;6.68;3.95;;;;;;;;;;5099870;28;20066;-78
2021/10/18 11:18:55;;;;;;;6.60;3.90;;;;;;;;;;5098095;28;20054;-79
2021/10/18 11:21:23;;;;;;;9.15;4.47;;;;;;;;;;5101240;28;20043;-76
2021/10/18 11:24:01;;;;;;;7.40;4.45;;;;;;;;;;5113790;28;20469;-75
2021/10/18 11:26:29;;;;;;;16.58;7.45;;;;;;;;;;5115158;28;20036;-76
2021/10/18 11:28:56;;;;;;;14.52;7.97;;;;;;;;;;5115343;28;20043;-78
2021/10/18 11:31:36;;;;;;;7.10;4.82;;;;;;;;;;5105234;28;20424;-78
2021/10/18 11:34:15;;;;;;;6.55;4.85;;;;;;;;;;5093993;28;20366;-78
2021/10/18 11:36:47;;;;;;;7.95;4.00;;;;;;;;;;5095852;28;20477;-79
2021/10/18 11:39:21;;;;;;;4.40;3.28;;;;;;;;;;5096230;28;20127;-79
2021/10/18 11:41:58;;;;;;;5.50;3.30;;;;;;;;;;5095970;28;20072;-80
2021/10/18 11:44:39;;;;;;;7.95;3.88;;;;;;;;;;5085096;28;20031;-79
2021/10/18 11:47:05;;;;;;;7.03;3.70;;;;;;;;;;5091478;28;20119;-81
2021/10/18 11:49:30;;;;;;;6.65;3.80;;;;;;;;;;5096086;28;20509;-86
2021/10/18 11:51:56;;;;;;;7.43;3.17;;;;;;;;;;5098823;28;20043;-84
2021/10/18 11:54:21;;;;;;;5.25;3.33;;;;;;;;;;5099053;28;20493;-84
2021/10/18 11:56:47;;;;;;;6.07;3.03;;;;;;;;;;5095621;28;20036;-80
2021/10/18 11:59:12;;;;;;;7.22;3.90;;;;;;;;;;5087241;28;20119;-77
2021/10/18 12:01:37;;;;;;;9.60;4.03;;;;;;;;;;5079820;28;20432;-77
2021/10/18 12:04:06;;;;;;;7.95;3.63;;;;;;;;;;5075374;28;20436;-78
2021/10/18 12:06:46;;;;;;;9.05;4.97;;;;;;;;;;5073250;28;20055;-78
2021/10/18 12:09:11;;;;;;;7.10;3.92;;;;;;;;;;5059481;28;20028;-82
2021/10/18 12:11:36;;;;;;;13.10;5.90;;;;;;;;;;5075604;28;20040;-80
2021/10/18 12:14:03;;;;;;;10.95;4.75;;;;;;;;;;5093373;28;20119;-73
2021/10/18 12:16:29;;;;;;;6.20;3.08;;;;;;;;;;5092966;28;20047;-74
2021/10/18 12:18:59;;;;;;;8.02;3.88;;;;;;;;;;5093082;28;20036;-74
2021/10/18 12:21:36;;;;;;;8.48;3.15;;;;;;;;;;5092400;28;20398;-74
2021/10/18 12:24:03;;;;;;;6.78;3.20;;;;;;;;;;5092885;28;20036;-74
2021/10/18 12:26:31;;;;;;;4.63;2.60;;;;;;;;;;5093173;28;20085;-74
2021/10/18 12:29:07;;;;;;;9.82;5.78;;;;;;;;;;5092791;28;20090;-74
2021/10/18 12:31:56;;;;;;;11.15;4.85;;;;;;;;;;5093195;28;20482;-74
2021/10/18 12:34:22;;;;;;;5.68;3.30;;;;;;;;;;5092155;28;20040;-74
2021/10/18 12:37:09;;;;;;;8.18;3.08;;;;;;;;;;5092935;28;20028;-74
2021/10/18 12:40:02;;;;;;;6.03;2.97;;;;;;;;;;5090861;28;20489;-74
2021/10/18 12:42:27;;;;;;;6.68;3.08;;;;;;;;;;5092906;28;20485;-74
2021/10/18 12:45:09;;;;;;;5.32;2.88;;;;;;;;;;5093312;28;20075;-74
2021/10/18 12:47:38;;;;;;;5.07;2.95;;;;;;;;;;5092871;28;20119;-74
2021/10/18 12:50:11;;;;;;;4.00;2.78;;;;;;;;;;5093105;28;20065;-74
2021/10/18 12:52:39;;;;;;;10.85;3.42;;;;;;;;;;5093511;28;20370;-74
2021/10/18 12:55:17;;;;;;;6.43;2.88;;;;;;;;;;5092916;28;20378;-74
2021/10/18 12:57:48;;;;;;;7.15;2.88;;;;;;;;;;5093035;28;20118;-74
2021/10/18 13:00:16;;;;;;;8.18;3.20;;;;;;;;;;5092815;28;20032;-74
2021/10/18 13:02:48;;;;;;;9.52;3.10;;;;;;;;;;5091603;28;20480;-74
2021/10/18 13:05:15;;;;;;;9.80;3.10;;;;;;;;;;5093037;28;20050;-74
2021/10/18 13:07:53;;;;;;;5.13;2.90;;;;;;;;;;5093213;28;20115;-74
2021/10/18 13:10:19;;;;;;;8.40;3.17;;;;;;;;;;5091668;28;20043;-74
2021/10/18 13:12:46;;;;;;;8.43;3.22;;;;;;;;;;5092940;28;20051;-74
2021/10/18 13:15:15;;;;;;;10.10;3.88;;;;;;;;;;5091487;28;20024;-74
2021/10/18 13:17:41;;;;;;;5.90;3.38;;;;;;;;;;5092896;28;20028;-74
2021/10/18 13:20:07;;;;;;;4.95;3.10;;;;;;;;;;5092815;28;20040;-74
2021/10/18 13:22:33;;;;;;;5.05;3.30;;;;;;;;;;5092953;28;20370;-74
2021/10/18 13:24:58;;;;;;;8.00;3.33;;;;;;;;;;5092317;28;20039;-74
2021/10/18 13:27:23;;;;;;;6.75;2.90;;;;;;;;;;5092737;28;20052;-74
2021/10/18 13:29:49;;;;;;;7.05;3.90;;;;;;;;;;5092360;28;20522;-73
2021/10/18 13:32:16;;;;;;;16.33;9.07;;;;;;;;;;5095054;28;20028;-74
2021/10/18 13:34:43;;;;;;;11.95;3.45;;;;;;;;;;5096364;28;20078;-74
2021/10/18 13:37:10;;;;;;;10.45;4.32;;;;;;;;;;5096321;28;20489;-74
2021/10/18 13:39:37;;;;;;;9.43;4.18;;;;;;;;;;5094910;28;20390;-74
2021/10/18 13:42:04;;;;;;;10.77;3.97;;;;;;;;;;5095696;28;20038;-74
2021/10/18 13:44:31;;;;;;;7.10;3.83;;;;;;;;;;5095104;28;20056;-74
2021/10/18 13:46:56;;;;;;;6.82;3.78;;;;;;;;;;5095064;28;20039;-74
2021/10/18 13:49:21;;;;;;;8.95;3.60;;;;;;;;;;5095757;28;20088;-75
2021/10/18 13:51:47;;;;;;;6.80;3.45;;;;;;;;;;5095951;28;20071;-75
2021/10/18 13:54:12;;;;;;;13.07;5.00;;;;;;;;;;5096279;28;20035;-74
2021/10/18 13:56:38;;;;;;;10.57;3.97;;;;;;;;;;5095930;28;20040;-74
2021/10/18 13:59:04;;;;;;;7.05;4.35;;;;;;;;;;5095942;28;20032;-74
2021/10/18 14:01:30;;;;;;;7.28;4.20;;;;;;;;;;5095097;28;20162;-73
2021/10/18 14:03:55;;;;;;;7.97;4.70;;;;;;;;;;5095709;28;20032;-74
2021/10/18 14:06:20;;;;;;;10.15;4.65;;;;;;;;;;5095564;28;20480;-74
2021/10/18 14:08:46;;;;;;;7.95;4.53;;;;;;;;;;5095211;28;20043;-74
2021/10/18 14:11:12;;;;;;;13.32;4.53;;;;;;;;;;5095547;28;20028;-74
2021/10/18 14:13:37;;;;;;;6.97;4.22;;;;;;;;;;5095439;28;20040;-74
2021/10/18 14:16:03;;;;;;;10.88;4.57;;;;;;;;;;5095582;28;20040;-74
2021/10/18 14:18:28;;;;;;;6.35;4.18;;;;;;;;;;5095549;28;20067;-74
2021/10/18 14:20:55;;;;;;;6.80;4.05;;;;;;;;;;5095673;28;20458;-74
2021/10/18 14:23:21;;;;;;;6.47;3.85;;;;;;;;;;5094025;28;20027;-74
2021/10/18 14:25:49;;;;;;;10.00;4.65;;;;;;;;;;5095348;28;20035;-74
2021/10/18 14:28:15;;;;;;;8.88;4.75;;;;;;;;;;5095400;28;20405;-75
2021/10/18 14:30:40;;;;;;;8.68;4.85;;;;;;;;;;5095474;28;20032;-74
2021/10/18 14:33:07;;;;;;;8.40;5.78;;;;;;;;;;5095349;28;20039;-74
2021/10/18 14:35:33;;;;;;;8.50;5.57;;;;;;;;;;5094958;28;20048;-74
2021/10/18 14:37:59;;;;;;;12.07;5.30;;;;;;;;;;5094718;28;20032;-74
2021/10/18 14:40:25;;;;;;;10.70;6.22;;;;;;;;;;5093795;28;20382;-74
2021/10/18 14:42:50;;;;;;;9.77;6.40;;;;;;;;;;5093675;28;20032;-74
2021/10/18 14:45:15;;;;;;;7.90;5.93;;;;;;;;;;5094937;28;20401;-74
2021/10/18 14:47:41;;;;;;;8.40;5.55;;;;;;;;;;5094934;28;20063;-74
2021/10/18 14:50:08;;;;;;;11.52;6.60;;;;;;;;;;5094144;28;20389;-74
2021/10/18 14:52:37;;;;;;;10.25;6.57;;;;;;;;;;5093556;28;20119;-75
2021/10/18 14:55:04;;;;;;;9.13;6.07;;;;;;;;;;5094324;28;20044;-74
2021/10/18 14:57:29;;;;;;;8.98;6.20;;;;;;;;;;5093645;28;20051;-74
2021/10/18 14:59:56;;;;;;;9.77;5.07;;;;;;;;;;5094266;28;20481;-73
2021/10/18 15:02:21;;;;;;;9.30;6.30;;;;;;;;;;5093213;28;20460;-74
2021/10/18 15:04:46;;;;;;;12.82;6.95;;;;;;;;;;5094541;28;20079;-74
2021/10/18 15:07:15;;;;;;;9.93;6.60;;;;;;;;;;5085239;28;20052;-74
2021/10/18 15:09:41;;;;;;;10.68;6.43;;;;;;;;;;5082697;28;20032;-74
2021/10/18 15:12:07;;;;;;;11.25;6.82;;;;;;;;;;5083337;28;20066;-74
2021/10/18 15:14:33;;;;;;;10.82;6.95;;;;;;;;;;5083458;28;20067;-74
2021/10/18 15:16:59;;;;;;;10.80;7.18;;;;;;;;;;5083121;28;20035;-74
2021/10/18 15:19:25;;;;;;;10.40;7.40;;;;;;;;;;5074871;28;20024;-74
2021/10/18 15:21:50;;;;;;;15.40;7.25;;;;;;;;;;5082963;28;20025;-74
2021/10/18 15:24:21;;;;;;;12.25;7.32;;;;;;;;;;5081545;28;20028;-74
2021/10/18 15:26:46;;;;;;;12.30;6.43;;;;;;;;;;5081030;28;20458;-74
2021/10/18 15:29:12;;;;;;;11.55;7.40;;;;;;;;;;5083631;28;20042;-74
2021/10/18 15:31:38;;;;;;;11.88;6.90;;;;;;;;;;5083824;28;20107;-74
2021/10/18 15:34:05;;;;;;;11.85;7.40;;;;;;;;;;5081066;28;20450;-74
2021/10/18 15:36:32;;;;;;;12.77;7.22;;;;;;;;;;5083679;28;20433;-74
2021/10/18 15:38:58;;;;;;;14.63;7.80;;;;;;;;;;5065363;28;20067;-74
2021/10/18 15:41:27;;;;;;;12.35;8.02;;;;;;;;;;5086740;28;20063;-74
2021/10/18 15:43:52;;;;;;;16.65;8.55;;;;;;;;;;5093882;28;20042;-74
2021/10/18 15:46:18;;;;;;;12.82;8.35;;;;;;;;;;5092792;28;20039;-74
2021/10/18 15:48:43;;;;;;;10.48;7.93;;;;;;;;;;5093718;28;20394;-75